createdAt,value
2019-01-27T00:00:21.710Z,988.28
2019-01-27T00:01:21.698Z,988.27
2019-01-27T00:02:21.668Z,988.24
2019-01-27T00:03:21.730Z,988.21
2019-01-27T00:04:21.646Z,988.21
2019-01-27T00:05:21.734Z,988.19
2019-01-27T00:06:21.625Z,988.45
2019-01-27T00:07:21.632Z,988.16
2019-01-27T00:08:21.641Z,988.16
2019-01-27T00:09:21.656Z,988.12
2019-01-27T00:10:21.577Z,988.10
2019-01-27T00:11:21.695Z,988.04
2019-01-27T00:12:21.589Z,988.06
2019-01-27T00:13:21.604Z,988.01
2019-01-27T00:14:21.550Z,988.01
2019-01-27T00:15:21.581Z,988.00
2019-01-27T00:16:21.519Z,988.02
2019-01-27T00:17:21.609Z,987.99
2019-01-27T00:18:22.348Z,987.94
2019-01-27T00:19:21.509Z,988.01
2019-01-27T00:20:21.475Z,987.86
2019-01-27T00:21:23.578Z,987.85
2019-01-27T00:22:21.458Z,987.88
2019-01-27T00:23:25.977Z,987.81
2019-01-27T00:24:21.432Z,987.77
2019-01-27T00:25:21.846Z,987.75
2019-01-27T00:26:21.413Z,987.75
2019-01-27T00:27:21.464Z,987.72
2019-01-27T00:28:21.381Z,987.72
2019-01-27T00:29:21.503Z,987.67
2019-01-27T00:30:21.391Z,987.70
2019-01-27T00:31:21.392Z,987.58
2019-01-27T00:32:21.345Z,987.59
2019-01-27T00:33:21.401Z,987.52
2019-01-27T00:34:21.330Z,987.55
2019-01-27T00:35:21.417Z,987.57
2019-01-27T00:36:21.296Z,987.57
2019-01-27T00:37:21.330Z,987.52
2019-01-27T00:38:21.275Z,987.58
2019-01-27T00:39:21.381Z,987.47
2019-01-27T00:40:21.259Z,987.44
2019-01-27T00:41:21.361Z,987.39
2019-01-27T00:42:21.233Z,987.42
2019-01-27T00:43:21.264Z,987.37
2019-01-27T00:44:21.233Z,987.38
2019-01-27T00:45:21.292Z,987.34
2019-01-27T00:46:21.208Z,987.35
2019-01-27T00:47:21.293Z,987.32
2019-01-27T00:48:21.188Z,987.34
2019-01-27T00:49:21.234Z,987.32
2019-01-27T00:50:21.142Z,987.32
2019-01-27T00:51:21.223Z,987.29
2019-01-27T00:52:21.170Z,987.28
2019-01-27T00:53:21.145Z,987.19
2019-01-27T00:54:21.125Z,987.21
2019-01-27T00:55:21.139Z,987.21
2019-01-27T00:56:21.117Z,987.16
2019-01-27T00:57:21.159Z,987.14
2019-01-27T00:58:21.080Z,987.08
2019-01-27T00:59:21.127Z,987.16
2019-01-27T01:00:21.033Z,987.04
2019-01-27T01:01:21.078Z,987.05
2019-01-27T01:02:21.051Z,987.07
2019-01-27T01:03:21.095Z,987.00
2019-01-27T01:04:21.005Z,987.02
2019-01-27T01:05:21.010Z,986.96
2019-01-27T01:06:20.976Z,986.97
2019-01-27T01:07:22.052Z,986.96
2019-01-27T01:08:20.964Z,986.94
2019-01-27T01:09:21.999Z,986.93
2019-01-27T01:10:20.941Z,986.92
2019-01-27T01:11:20.957Z,986.90
2019-01-27T01:12:20.904Z,986.85
2019-01-27T01:13:20.955Z,986.83
2019-01-27T01:14:20.908Z,986.83
2019-01-27T01:15:21.900Z,986.84
2019-01-27T01:16:20.859Z,986.86
2019-01-27T01:17:20.883Z,986.85
2019-01-27T01:18:20.848Z,986.80
2019-01-27T01:19:20.922Z,986.76
2019-01-27T01:20:20.814Z,986.77
2019-01-27T01:21:20.917Z,986.68
2019-01-27T01:22:20.807Z,986.64
2019-01-27T01:23:20.831Z,986.71
2019-01-27T01:24:20.785Z,986.68
2019-01-27T01:25:20.857Z,986.70
2019-01-27T01:26:20.746Z,986.70
2019-01-27T01:27:20.849Z,986.64
2019-01-27T01:28:20.758Z,986.62
2019-01-27T01:29:20.794Z,986.63
2019-01-27T01:30:20.717Z,986.67
2019-01-27T01:31:20.780Z,986.61
2019-01-27T01:32:20.708Z,986.64
2019-01-27T01:33:20.807Z,986.55
2019-01-27T01:34:20.659Z,986.59
2019-01-27T01:35:20.728Z,986.50
2019-01-27T01:36:20.643Z,986.50
2019-01-27T01:37:20.717Z,986.50
2019-01-27T01:38:20.615Z,986.50
2019-01-27T01:39:20.622Z,986.47
2019-01-27T01:40:20.642Z,986.42
2019-01-27T01:41:20.636Z,986.41
2019-01-27T01:42:20.584Z,986.43
2019-01-27T01:43:20.650Z,986.37
2019-01-27T01:44:20.551Z,986.30
2019-01-27T01:45:20.591Z,986.30
2019-01-27T01:46:20.526Z,986.28
2019-01-27T01:47:20.579Z,986.25
2019-01-27T01:48:20.506Z,986.21
2019-01-27T01:49:20.587Z,986.24
2019-01-27T01:50:20.514Z,986.15
2019-01-27T01:51:20.495Z,986.25
2019-01-27T01:52:20.462Z,986.24
2019-01-27T01:53:37.548Z,986.20
2019-01-27T01:54:20.440Z,986.18
2019-01-27T01:55:20.444Z,986.13
2019-01-27T01:56:21.455Z,986.10
2019-01-27T01:57:20.413Z,986.06
2019-01-27T01:58:20.442Z,986.02
2019-01-27T01:59:20.384Z,986.02
2019-01-27T02:00:21.849Z,986.04
2019-01-27T02:01:20.367Z,985.98
2019-01-27T02:02:20.369Z,985.93
2019-01-27T02:03:20.376Z,985.99
2019-01-27T02:04:20.379Z,985.89
2019-01-27T02:05:20.352Z,985.89
2019-01-27T02:06:20.422Z,985.85
2019-01-27T02:07:20.298Z,985.88
2019-01-27T02:08:20.307Z,985.82
2019-01-27T02:09:20.276Z,985.87
2019-01-27T02:10:20.346Z,985.79
2019-01-27T02:11:20.254Z,985.80
2019-01-27T02:12:20.352Z,985.88
2019-01-27T02:13:20.251Z,985.79
2019-01-27T02:14:20.252Z,985.74
2019-01-27T02:15:20.211Z,985.72
2019-01-27T02:16:20.285Z,985.71
2019-01-27T02:17:20.227Z,985.65
2019-01-27T02:18:20.292Z,985.66
2019-01-27T02:19:20.201Z,985.58
2019-01-27T02:20:20.198Z,985.63
2019-01-27T02:21:20.185Z,985.59
2019-01-27T02:22:20.222Z,985.57
2019-01-27T02:23:20.122Z,985.53
2019-01-27T02:24:20.227Z,985.52
2019-01-27T02:25:20.126Z,985.50
2019-01-27T02:26:20.150Z,985.39
2019-01-27T02:27:20.081Z,985.36
2019-01-27T02:28:20.155Z,985.42
2019-01-27T02:29:20.059Z,985.31
2019-01-27T02:30:20.161Z,985.29
2019-01-27T02:31:20.075Z,985.27
2019-01-27T02:32:20.066Z,985.18
2019-01-27T02:33:20.012Z,985.20
2019-01-27T02:34:20.077Z,985.18
2019-01-27T02:35:20.017Z,985.09
2019-01-27T02:36:20.015Z,985.09
2019-01-27T02:37:19.969Z,985.08
2019-01-27T02:38:21.044Z,984.98
2019-01-27T02:39:19.953Z,984.99
2019-01-27T02:40:42.053Z,984.97
2019-01-27T02:41:19.946Z,984.93
2019-01-27T02:42:20.963Z,984.89
2019-01-27T02:43:20.006Z,984.89
2019-01-27T02:44:19.944Z,984.91
2019-01-27T02:45:19.888Z,984.85
2019-01-27T02:46:19.989Z,984.85
2019-01-27T02:47:19.876Z,984.84
2019-01-27T02:48:19.895Z,984.75
2019-01-27T02:49:19.874Z,984.73
2019-01-27T02:50:19.884Z,984.71
2019-01-27T02:51:19.891Z,984.63
2019-01-27T02:52:19.900Z,984.62
2019-01-27T02:53:19.798Z,984.65
2019-01-27T02:54:19.806Z,984.59
2019-01-27T02:55:19.802Z,984.70
2019-01-27T02:56:19.860Z,984.59
2019-01-27T02:57:19.859Z,984.56
2019-01-27T02:58:19.830Z,984.53
2019-01-27T02:59:19.911Z,984.48
2019-01-27T03:00:19.750Z,984.50
2019-01-27T03:01:19.727Z,984.49
2019-01-27T03:02:19.762Z,984.45
2019-01-27T03:03:19.696Z,984.43
2019-01-27T03:04:19.784Z,984.46
2019-01-27T03:05:19.664Z,984.36
2019-01-27T03:06:20.331Z,984.37
2019-01-27T03:07:19.639Z,984.37
2019-01-27T03:08:19.715Z,984.36
2019-01-27T03:09:19.627Z,984.37
2019-01-27T03:10:19.709Z,984.30
2019-01-27T03:11:19.614Z,984.31
2019-01-27T03:12:19.624Z,984.30
2019-01-27T03:13:19.572Z,984.29
2019-01-27T03:14:19.635Z,984.26
2019-01-27T03:15:19.562Z,984.20
2019-01-27T03:16:19.589Z,984.26
2019-01-27T03:17:19.554Z,984.23
2019-01-27T03:18:19.560Z,984.11
2019-01-27T03:19:19.507Z,984.16
2019-01-27T03:20:19.574Z,984.09
2019-01-27T03:21:19.500Z,984.13
2019-01-27T03:22:19.585Z,984.07
2019-01-27T03:23:19.473Z,984.04
2019-01-27T03:24:19.511Z,984.08
2019-01-27T03:25:19.461Z,984.05
2019-01-27T03:26:19.537Z,984.01
2019-01-27T03:27:19.426Z,983.98
2019-01-27T03:28:19.522Z,984.03
2019-01-27T03:29:19.403Z,984.05
2019-01-27T03:30:19.439Z,984.00
2019-01-27T03:31:19.378Z,984.01
2019-01-27T03:32:19.512Z,984.07
2019-01-27T03:33:19.360Z,984.03
2019-01-27T03:34:19.461Z,984.04
2019-01-27T03:35:19.333Z,983.94
2019-01-27T03:36:19.371Z,983.90
2019-01-27T03:37:19.326Z,983.93
2019-01-27T03:38:19.395Z,983.88
2019-01-27T03:39:19.288Z,983.91
2019-01-27T03:40:19.304Z,983.86
2019-01-27T03:41:19.271Z,983.81
2019-01-27T03:42:19.376Z,983.84
2019-01-27T03:43:19.248Z,983.76
2019-01-27T03:44:19.330Z,983.71
2019-01-27T03:45:19.233Z,983.71
2019-01-27T03:46:19.240Z,983.70
2019-01-27T03:47:19.231Z,983.66
2019-01-27T03:48:19.258Z,983.62
2019-01-27T03:49:19.185Z,983.63
2019-01-27T03:50:19.275Z,983.62
2019-01-27T03:51:19.271Z,983.55
2019-01-27T03:52:19.204Z,983.51
2019-01-27T03:53:19.142Z,983.56
2019-01-27T03:54:19.192Z,983.44
2019-01-27T03:55:19.124Z,983.54
2019-01-27T03:56:19.214Z,983.54
2019-01-27T03:57:19.109Z,983.60
2019-01-27T03:58:19.130Z,983.49
2019-01-27T03:59:19.072Z,983.46
2019-01-27T04:00:19.187Z,983.48
2019-01-27T04:01:19.059Z,983.49
2019-01-27T04:02:19.069Z,983.44
2019-01-27T04:03:19.035Z,983.41
2019-01-27T04:04:19.056Z,983.36
2019-01-27T04:05:19.009Z,983.35
2019-01-27T04:06:19.068Z,983.34
2019-01-27T04:07:19.029Z,983.30
2019-01-27T04:08:19.081Z,983.30
2019-01-27T04:09:18.986Z,983.26
2019-01-27T04:10:25.957Z,983.27
2019-01-27T04:11:18.944Z,983.24
2019-01-27T04:12:19.005Z,983.21
2019-01-27T04:13:18.941Z,983.21
2019-01-27T04:14:19.940Z,983.24
2019-01-27T04:15:18.911Z,983.21
2019-01-27T04:16:18.944Z,983.15
2019-01-27T04:17:18.882Z,983.13
2019-01-27T04:18:18.974Z,983.06
2019-01-27T04:19:18.870Z,983.10
2019-01-27T04:20:19.901Z,983.07
2019-01-27T04:21:18.847Z,983.00
2019-01-27T04:22:18.869Z,983.10
2019-01-27T04:23:18.826Z,983.03
2019-01-27T04:24:18.939Z,982.94
2019-01-27T04:25:18.827Z,982.99
2019-01-27T04:26:18.798Z,982.98
2019-01-27T04:27:18.774Z,982.99
2019-01-27T04:28:18.900Z,983.04
2019-01-27T04:29:18.753Z,982.98
2019-01-27T04:30:18.829Z,982.93
2019-01-27T04:31:18.736Z,982.87
2019-01-27T04:32:18.731Z,982.88
2019-01-27T04:33:18.736Z,982.83
2019-01-27T04:34:18.821Z,982.85
2019-01-27T04:35:18.701Z,982.82
2019-01-27T04:36:18.776Z,982.81
2019-01-27T04:37:18.663Z,982.74
2019-01-27T04:38:18.702Z,982.75
2019-01-27T04:39:18.644Z,982.74
2019-01-27T04:40:18.687Z,982.75
2019-01-27T04:41:18.626Z,982.78
2019-01-27T04:42:18.702Z,982.71
2019-01-27T04:43:18.629Z,982.73
2019-01-27T04:44:18.613Z,982.69
2019-01-27T04:45:18.582Z,982.68
2019-01-27T04:46:18.633Z,982.68
2019-01-27T04:47:18.565Z,982.69
2019-01-27T04:48:18.563Z,982.61
2019-01-27T04:49:18.545Z,982.66
2019-01-27T04:50:18.551Z,982.67
2019-01-27T04:51:18.511Z,982.65
2019-01-27T04:52:18.571Z,982.61
2019-01-27T04:53:18.498Z,982.59
2019-01-27T04:54:18.601Z,982.53
2019-01-27T04:55:18.469Z,982.54
2019-01-27T04:56:25.460Z,982.53
2019-01-27T04:57:18.444Z,982.48
2019-01-27T04:58:18.553Z,982.48
2019-01-27T04:59:18.429Z,982.47
2019-01-27T05:00:19.447Z,982.48
2019-01-27T05:01:18.421Z,982.55
2019-01-27T05:02:18.429Z,982.45
2019-01-27T05:03:18.395Z,982.46
2019-01-27T05:04:18.443Z,982.45
2019-01-27T05:05:18.371Z,982.44
2019-01-27T05:06:18.358Z,982.43
2019-01-27T05:07:18.366Z,982.41
2019-01-27T05:08:18.392Z,982.40
2019-01-27T05:09:18.309Z,982.40
2019-01-27T05:10:18.380Z,982.35
2019-01-27T05:11:18.290Z,982.39
2019-01-27T05:12:18.307Z,982.43
2019-01-27T05:13:18.300Z,982.36
2019-01-27T05:14:18.328Z,982.40
2019-01-27T05:15:18.244Z,982.38
2019-01-27T05:16:18.333Z,982.35
2019-01-27T05:17:18.232Z,982.30
2019-01-27T05:18:18.235Z,982.31
2019-01-27T05:19:18.226Z,982.29
2019-01-27T05:20:18.264Z,982.33
2019-01-27T05:21:18.228Z,982.28
2019-01-27T05:22:18.263Z,982.30
2019-01-27T05:23:18.203Z,982.27
2019-01-27T05:24:18.208Z,982.21
2019-01-27T05:25:18.137Z,982.20
2019-01-27T05:26:18.205Z,982.20
2019-01-27T05:27:18.119Z,982.12
2019-01-27T05:28:18.214Z,982.18
2019-01-27T05:29:18.502Z,982.10
2019-01-27T05:30:18.111Z,982.05
2019-01-27T05:31:18.069Z,981.97
2019-01-27T05:32:18.159Z,981.95
2019-01-27T05:33:18.048Z,981.97
2019-01-27T05:34:18.158Z,981.96
2019-01-27T05:35:18.023Z,981.97
2019-01-27T05:36:18.048Z,981.96
2019-01-27T05:37:18.065Z,981.92
2019-01-27T05:38:18.088Z,981.91
2019-01-27T05:39:17.991Z,981.92
2019-01-27T05:40:19.318Z,981.93
2019-01-27T05:41:17.963Z,981.93
2019-01-27T05:42:24.952Z,981.88
2019-01-27T05:43:17.941Z,981.92
2019-01-27T05:44:19.970Z,981.90
2019-01-27T05:45:17.940Z,981.87
2019-01-27T05:46:18.016Z,981.87
2019-01-27T05:47:17.908Z,981.81
2019-01-27T05:48:17.924Z,981.82
2019-01-27T05:49:17.917Z,981.83
2019-01-27T05:50:17.939Z,981.78
2019-01-27T05:51:17.852Z,981.76
2019-01-27T05:52:17.867Z,981.78
2019-01-27T05:53:17.827Z,981.67
2019-01-27T05:54:20.072Z,981.67
2019-01-27T05:55:17.811Z,981.71
2019-01-27T05:56:17.876Z,981.69
2019-01-27T05:57:17.792Z,981.71
2019-01-27T05:58:17.801Z,981.71
2019-01-27T05:59:17.778Z,981.70
2019-01-27T06:00:17.799Z,981.74
2019-01-27T06:01:17.737Z,981.65
2019-01-27T06:02:17.814Z,981.68
2019-01-27T06:03:17.717Z,981.66
2019-01-27T06:04:17.758Z,981.67
2019-01-27T06:05:17.697Z,981.62
2019-01-27T06:06:17.738Z,981.59
2019-01-27T06:07:17.676Z,981.63
2019-01-27T06:08:17.752Z,981.60
2019-01-27T06:09:17.667Z,981.58
2019-01-27T06:10:17.702Z,981.51
2019-01-27T06:11:17.651Z,981.55
2019-01-27T06:12:17.690Z,981.49
2019-01-27T06:13:17.618Z,981.45
2019-01-27T06:14:17.718Z,981.41
2019-01-27T06:15:17.592Z,981.41
2019-01-27T06:16:17.649Z,981.41
2019-01-27T06:17:17.567Z,981.40
2019-01-27T06:18:17.615Z,981.40
2019-01-27T06:19:17.560Z,981.35
2019-01-27T06:20:17.666Z,981.38
2019-01-27T06:21:17.519Z,981.33
2019-01-27T06:22:17.546Z,981.36
2019-01-27T06:23:17.497Z,981.30
2019-01-27T06:24:17.698Z,981.33
2019-01-27T06:25:17.544Z,981.38
2019-01-27T06:26:17.570Z,981.34
2019-01-27T06:27:17.457Z,981.36
2019-01-27T06:28:18.511Z,981.34
2019-01-27T06:29:17.457Z,981.27
2019-01-27T06:30:19.444Z,981.26
2019-01-27T06:31:17.417Z,981.25
2019-01-27T06:32:18.451Z,981.22
2019-01-27T06:33:17.394Z,981.22
2019-01-27T06:34:17.450Z,981.23
2019-01-27T06:35:17.371Z,981.22
2019-01-27T06:36:17.448Z,981.23
2019-01-27T06:37:24.526Z,981.21
2019-01-27T06:38:18.380Z,981.16
2019-01-27T06:39:17.332Z,981.14
2019-01-27T06:40:17.387Z,981.07
2019-01-27T06:41:17.305Z,980.98
2019-01-27T06:42:17.382Z,981.11
2019-01-27T06:43:17.286Z,980.95
2019-01-27T06:44:17.291Z,980.95
2019-01-27T06:45:17.290Z,980.94
2019-01-27T06:46:17.299Z,980.91
2019-01-27T06:47:17.238Z,980.90
2019-01-27T06:48:17.332Z,980.97
2019-01-27T06:49:17.216Z,980.96
2019-01-27T06:50:17.253Z,980.97
2019-01-27T06:51:17.195Z,980.96
2019-01-27T06:52:17.246Z,980.89
2019-01-27T06:53:17.169Z,980.95
2019-01-27T06:54:17.273Z,980.96
2019-01-27T06:55:17.166Z,980.92
2019-01-27T06:56:17.169Z,980.89
2019-01-27T06:57:17.142Z,980.93
2019-01-27T06:58:17.190Z,980.94
2019-01-27T06:59:17.104Z,980.96
2019-01-27T07:00:17.213Z,980.90
2019-01-27T07:01:17.085Z,980.93
2019-01-27T07:02:17.104Z,980.90
2019-01-27T07:03:17.086Z,980.93
2019-01-27T07:04:17.122Z,980.95
2019-01-27T07:05:17.049Z,980.93
2019-01-27T07:06:17.131Z,980.97
2019-01-27T07:07:17.021Z,981.01
2019-01-27T07:08:17.044Z,980.99
2019-01-27T07:09:17.025Z,980.93
2019-01-27T07:10:17.081Z,980.96
2019-01-27T07:11:16.972Z,980.93
2019-01-27T07:12:17.071Z,980.95
2019-01-27T07:13:16.957Z,980.91
2019-01-27T07:14:16.977Z,980.87
2019-01-27T07:15:16.946Z,980.84
2019-01-27T07:16:18.942Z,980.85
2019-01-27T07:17:16.944Z,980.83
2019-01-27T07:18:17.925Z,980.80
2019-01-27T07:19:16.886Z,980.83
2019-01-27T07:20:16.954Z,980.69
2019-01-27T07:21:17.825Z,980.78
2019-01-27T07:22:16.931Z,980.72
2019-01-27T07:23:16.852Z,980.77
2019-01-27T07:24:16.949Z,980.73
2019-01-27T07:25:16.831Z,980.74
2019-01-27T07:26:16.855Z,980.68
2019-01-27T07:27:16.795Z,980.66
2019-01-27T07:28:16.875Z,980.72
2019-01-27T07:29:16.778Z,980.66
2019-01-27T07:30:16.813Z,980.68
2019-01-27T07:31:16.756Z,980.65
2019-01-27T07:32:16.807Z,980.66
2019-01-27T07:33:16.736Z,980.66
2019-01-27T07:34:16.808Z,980.64
2019-01-27T07:35:16.810Z,980.63
2019-01-27T07:36:16.723Z,980.65
2019-01-27T07:37:16.692Z,980.64
2019-01-27T07:38:16.736Z,980.64
2019-01-27T07:39:16.667Z,980.59
2019-01-27T07:40:16.782Z,980.60
2019-01-27T07:41:16.647Z,980.59
2019-01-27T07:42:16.662Z,980.63
2019-01-27T07:43:16.627Z,980.59
2019-01-27T07:44:16.740Z,980.61
2019-01-27T07:45:16.601Z,980.59
2019-01-27T07:46:16.716Z,980.64
2019-01-27T07:47:16.600Z,980.59
2019-01-27T07:48:16.601Z,980.60
2019-01-27T07:49:16.604Z,980.55
2019-01-27T07:50:16.626Z,980.58
2019-01-27T07:51:16.582Z,980.62
2019-01-27T07:52:16.625Z,980.59
2019-01-27T07:53:16.516Z,980.62
2019-01-27T07:54:16.537Z,980.60
2019-01-27T07:55:16.501Z,980.57
2019-01-27T07:56:16.578Z,980.57
2019-01-27T07:57:16.498Z,980.53
2019-01-27T07:58:16.633Z,980.64
2019-01-27T07:59:16.457Z,980.52
2019-01-27T08:00:16.474Z,980.56
2019-01-27T08:01:16.502Z,980.50
2019-01-27T08:02:18.527Z,980.50
2019-01-27T08:03:16.414Z,980.54
2019-01-27T08:04:17.433Z,980.50
2019-01-27T08:05:16.385Z,980.47
2019-01-27T08:06:16.499Z,980.51
2019-01-27T08:07:16.360Z,980.47
2019-01-27T08:08:16.432Z,980.47
2019-01-27T08:09:16.347Z,980.39
2019-01-27T08:10:16.455Z,980.49
2019-01-27T08:11:16.384Z,980.47
2019-01-27T08:12:16.353Z,980.52
2019-01-27T08:13:16.323Z,980.49
2019-01-27T08:14:16.455Z,980.46
2019-01-27T08:15:16.280Z,980.49
2019-01-27T08:16:16.307Z,980.46
2019-01-27T08:17:16.255Z,980.44
2019-01-27T08:18:16.297Z,980.45
2019-01-27T08:19:16.228Z,980.47
2019-01-27T08:20:16.324Z,980.45
2019-01-27T08:21:16.225Z,980.50
2019-01-27T08:22:16.220Z,980.45
2019-01-27T08:23:16.209Z,980.43
2019-01-27T08:24:16.232Z,980.42
2019-01-27T08:25:16.167Z,980.42
2019-01-27T08:26:16.284Z,980.42
2019-01-27T08:27:16.140Z,980.41
2019-01-27T08:28:16.154Z,980.43
2019-01-27T08:29:16.122Z,980.42
2019-01-27T08:30:16.177Z,980.37
2019-01-27T08:31:16.116Z,980.32
2019-01-27T08:32:16.181Z,980.30
2019-01-27T08:33:16.076Z,980.31
2019-01-27T08:34:16.107Z,980.36
2019-01-27T08:35:16.090Z,980.32
2019-01-27T08:36:16.175Z,980.38
2019-01-27T08:37:16.033Z,980.37
2019-01-27T08:38:18.076Z,980.41
2019-01-27T08:39:16.613Z,980.36
2019-01-27T08:40:16.048Z,980.35
2019-01-27T08:41:16.023Z,980.41
2019-01-27T08:42:16.062Z,980.33
2019-01-27T08:43:15.970Z,980.34
2019-01-27T08:44:18.130Z,980.36
2019-01-27T08:45:16.107Z,980.33
2019-01-27T08:46:18.249Z,980.35
2019-01-27T08:47:15.945Z,980.29
2019-01-27T08:48:16.093Z,980.33
2019-01-27T08:49:16.034Z,980.31
2019-01-27T08:50:15.968Z,980.28
2019-01-27T08:51:15.891Z,980.31
2019-01-27T08:52:15.974Z,980.30
2019-01-27T08:53:15.875Z,980.29
2019-01-27T08:54:15.952Z,980.31
2019-01-27T08:55:15.843Z,980.29
2019-01-27T08:56:15.857Z,980.23
2019-01-27T08:57:15.959Z,980.23
2019-01-27T08:58:15.880Z,980.21
2019-01-27T08:59:15.818Z,980.18
2019-01-27T09:00:18.327Z,980.17
2019-01-27T09:01:15.775Z,980.17
2019-01-27T09:02:16.066Z,980.13
2019-01-27T09:03:15.768Z,980.10
2019-01-27T09:04:15.804Z,980.17
2019-01-27T09:05:15.730Z,980.12
2019-01-27T09:06:15.882Z,980.14
2019-01-27T09:07:15.907Z,980.12
2019-01-27T09:08:15.770Z,980.14
2019-01-27T09:09:15.728Z,980.12
2019-01-27T09:10:15.765Z,980.12
2019-01-27T09:11:15.717Z,980.06
2019-01-27T09:12:15.718Z,980.04
2019-01-27T09:13:15.658Z,980.07
2019-01-27T09:14:15.674Z,980.08
2019-01-27T09:15:15.627Z,980.05
2019-01-27T09:16:15.681Z,980.08
2019-01-27T09:17:15.971Z,980.07
2019-01-27T09:18:15.734Z,980.10
2019-01-27T09:19:15.610Z,980.01
2019-01-27T09:20:15.669Z,980.00
2019-01-27T09:21:15.567Z,980.04
2019-01-27T09:22:15.667Z,980.02
2019-01-27T09:23:15.702Z,980.01
2019-01-27T09:24:15.532Z,980.04
2019-01-27T09:25:15.510Z,980.03
2019-01-27T09:26:15.552Z,980.00
2019-01-27T09:27:15.502Z,980.04
2019-01-27T09:28:15.605Z,980.04
2019-01-27T09:29:15.463Z,980.00
2019-01-27T09:30:15.498Z,979.98
2019-01-27T09:31:15.440Z,980.00
2019-01-27T09:32:16.559Z,980.03
2019-01-27T09:33:15.441Z,979.95
2019-01-27T09:34:16.528Z,979.91
2019-01-27T09:35:15.401Z,980.00
2019-01-27T09:36:15.421Z,979.97
2019-01-27T09:37:15.385Z,979.93
2019-01-27T09:38:15.432Z,979.90
2019-01-27T09:39:15.415Z,979.96
2019-01-27T09:40:15.497Z,980.02
2019-01-27T09:41:15.426Z,979.97
2019-01-27T09:42:15.388Z,979.91
2019-01-27T09:43:15.319Z,979.94
2019-01-27T09:44:15.363Z,979.91
2019-01-27T09:45:15.302Z,979.90
2019-01-27T09:46:15.374Z,979.89
2019-01-27T09:47:15.277Z,979.94
2019-01-27T09:48:15.344Z,979.79
2019-01-27T09:49:15.249Z,979.89
2019-01-27T09:50:15.299Z,979.88
2019-01-27T09:51:15.221Z,979.83
2019-01-27T09:52:15.342Z,979.85
2019-01-27T09:53:15.199Z,979.84
2019-01-27T09:54:15.226Z,979.82
2019-01-27T09:55:15.174Z,979.82
2019-01-27T09:56:15.240Z,979.82
2019-01-27T09:57:15.182Z,979.80
2019-01-27T09:58:15.180Z,979.80
2019-01-27T09:59:15.142Z,979.79
2019-01-27T10:00:15.181Z,979.87
2019-01-27T10:01:15.119Z,979.81
2019-01-27T10:02:15.203Z,979.81
2019-01-27T10:03:15.146Z,979.82
2019-01-27T10:04:15.212Z,979.84
2019-01-27T10:05:15.465Z,979.80
2019-01-27T10:06:15.117Z,979.82
2019-01-27T10:07:15.062Z,979.86
2019-01-27T10:08:15.145Z,979.82
2019-01-27T10:09:15.083Z,979.78
2019-01-27T10:10:15.054Z,979.86
2019-01-27T10:11:15.003Z,979.76
2019-01-27T10:12:15.078Z,979.90
2019-01-27T10:13:15.008Z,979.82
2019-01-27T10:14:15.078Z,979.81
2019-01-27T10:15:14.959Z,979.79
2019-01-27T10:16:14.969Z,979.84
2019-01-27T10:17:14.936Z,979.75
2019-01-27T10:18:15.022Z,979.82
2019-01-27T10:19:14.950Z,979.86
2019-01-27T10:20:15.000Z,979.79
2019-01-27T10:21:14.898Z,979.84
2019-01-27T10:22:14.905Z,979.81
2019-01-27T10:23:14.884Z,979.73
2019-01-27T10:24:14.920Z,979.76
2019-01-27T10:25:16.087Z,979.75
2019-01-27T10:26:14.941Z,979.77
2019-01-27T10:27:14.829Z,979.76
2019-01-27T10:28:14.973Z,979.75
2019-01-27T10:29:14.803Z,979.75
2019-01-27T10:30:14.869Z,979.70
2019-01-27T10:31:14.810Z,979.68
2019-01-27T10:32:14.880Z,979.75
2019-01-27T10:33:14.832Z,979.71
2019-01-27T10:34:14.831Z,979.72
2019-01-27T10:35:14.738Z,979.68
2019-01-27T10:36:14.804Z,979.68
2019-01-27T10:37:14.734Z,979.69
2019-01-27T10:38:14.867Z,979.73
2019-01-27T10:39:14.707Z,979.69
2019-01-27T10:40:14.735Z,979.63
2019-01-27T10:41:14.677Z,979.64
2019-01-27T10:42:14.738Z,979.69
2019-01-27T10:43:14.650Z,979.66
2019-01-27T10:44:14.685Z,979.65
2019-01-27T10:45:14.625Z,979.50
2019-01-27T10:46:14.673Z,979.66
2019-01-27T10:47:14.605Z,979.54
2019-01-27T10:48:14.676Z,979.52
2019-01-27T10:49:14.600Z,979.57
2019-01-27T10:50:14.742Z,979.55
2019-01-27T10:51:14.567Z,979.55
2019-01-27T10:52:14.603Z,979.48
2019-01-27T10:53:14.542Z,979.50
2019-01-27T10:54:14.647Z,979.49
2019-01-27T10:55:14.558Z,979.49
2019-01-27T10:56:14.530Z,979.40
2019-01-27T10:57:14.503Z,979.51
2019-01-27T10:58:14.548Z,979.44
2019-01-27T10:59:14.513Z,979.45
2019-01-27T11:00:14.557Z,979.45
2019-01-27T11:01:14.501Z,979.42
2019-01-27T11:02:21.453Z,979.39
2019-01-27T11:03:14.436Z,979.38
2019-01-27T11:04:15.568Z,979.42
2019-01-27T11:05:14.430Z,979.38
2019-01-27T11:06:15.562Z,979.35
2019-01-27T11:07:14.424Z,979.35
2019-01-27T11:08:14.420Z,979.38
2019-01-27T11:09:14.386Z,979.41
2019-01-27T11:10:14.423Z,979.33
2019-01-27T11:11:14.354Z,979.32
2019-01-27T11:12:14.466Z,979.37
2019-01-27T11:13:14.324Z,979.26
2019-01-27T11:14:14.381Z,979.36
2019-01-27T11:15:14.297Z,979.30
2019-01-27T11:16:14.357Z,979.33
2019-01-27T11:17:14.298Z,979.26
2019-01-27T11:18:14.373Z,979.23
2019-01-27T11:19:14.281Z,979.22
2019-01-27T11:20:14.306Z,979.28
2019-01-27T11:21:14.234Z,979.18
2019-01-27T11:22:14.303Z,979.21
2019-01-27T11:23:14.221Z,979.28
2019-01-27T11:24:14.332Z,979.21
2019-01-27T11:25:14.200Z,979.19
2019-01-27T11:26:14.218Z,979.15
2019-01-27T11:27:14.175Z,979.09
2019-01-27T11:28:14.237Z,979.05
2019-01-27T11:29:14.140Z,979.10
2019-01-27T11:30:14.220Z,979.16
2019-01-27T11:31:14.122Z,979.09
2019-01-27T11:32:14.161Z,979.01
2019-01-27T11:33:14.105Z,979.04
2019-01-27T11:34:14.210Z,979.10
2019-01-27T11:35:14.097Z,979.12
2019-01-27T11:36:14.083Z,979.13
2019-01-27T11:37:14.058Z,979.09
2019-01-27T11:38:14.099Z,979.01
2019-01-27T11:39:14.064Z,979.07
2019-01-27T11:40:14.136Z,979.07
2019-01-27T11:41:14.014Z,978.98
2019-01-27T11:42:14.057Z,978.98
2019-01-27T11:43:14.009Z,979.04
2019-01-27T11:44:14.036Z,979.00
2019-01-27T11:45:13.982Z,978.94
2019-01-27T11:46:15.118Z,978.93
2019-01-27T11:47:13.985Z,978.95
2019-01-27T11:48:15.004Z,979.01
2019-01-27T11:49:13.928Z,978.95
2019-01-27T11:50:15.036Z,978.91
2019-01-27T11:51:13.898Z,978.87
2019-01-27T11:52:15.549Z,978.86
2019-01-27T11:53:14.816Z,978.84
2019-01-27T11:54:14.973Z,978.81
2019-01-27T11:55:13.872Z,978.82
2019-01-27T11:56:13.940Z,978.82
2019-01-27T11:57:13.847Z,978.80
2019-01-27T11:58:13.931Z,978.84
2019-01-27T11:59:13.816Z,978.77
2019-01-27T12:00:13.863Z,978.77
2019-01-27T12:01:13.795Z,978.72
2019-01-27T12:02:13.863Z,978.72
2019-01-27T12:03:13.809Z,978.72
2019-01-27T12:04:13.866Z,978.70
2019-01-27T12:05:13.774Z,978.68
2019-01-27T12:06:13.780Z,978.66
2019-01-27T12:07:13.743Z,978.64
2019-01-27T12:08:13.866Z,978.63
2019-01-27T12:09:13.715Z,978.65
2019-01-27T12:10:13.753Z,978.66
2019-01-27T12:11:13.689Z,978.61
2019-01-27T12:12:13.737Z,978.65
2019-01-27T12:13:13.670Z,978.59
2019-01-27T12:14:13.733Z,978.66
2019-01-27T12:15:13.696Z,978.62
2019-01-27T12:16:13.669Z,978.63
2019-01-27T12:17:13.652Z,978.62
2019-01-27T12:18:13.656Z,978.75
2019-01-27T12:19:13.623Z,978.68
2019-01-27T12:20:13.749Z,978.64
2019-01-27T12:21:13.576Z,978.67
2019-01-27T12:22:13.596Z,978.61
2019-01-27T12:23:13.560Z,978.59
2019-01-27T12:24:13.649Z,978.56
2019-01-27T12:25:13.561Z,978.57
2019-01-27T12:26:13.609Z,978.55
2019-01-27T12:27:13.518Z,978.54
2019-01-27T12:28:13.529Z,978.51